createdAt,value
2023-01-13T00:03:49.216Z,98023.00
2023-01-13T00:06:21.764Z,98025.78
2023-01-13T00:08:50.466Z,98028.88
2023-01-13T00:11:18.887Z,98017.28
2023-01-13T00:13:45.949Z,98013.81
2023-01-13T00:16:16.315Z,98010.31
2023-01-13T00:18:44.275Z,98011.41
2023-01-13T00:21:19.402Z,98014.19
2023-01-13T00:26:26.744Z,97995.47
2023-01-13T00:28:58.258Z,97995.47
2023-01-13T00:31:25.329Z,97991.56
2023-01-13T00:33:52.235Z,97993.09
2023-01-13T00:36:20.948Z,97991.53
2023-01-13T00:38:48.447Z,97984.13
2023-01-13T00:41:18.376Z,97978.25
2023-01-13T00:43:45.604Z,97976.34
2023-01-13T00:46:14.263Z,97967.38
2023-01-13T00:48:41.182Z,97964.59
2023-01-13T00:51:14.064Z,97965.75
2023-01-13T00:53:44.283Z,97968.06
2023-01-13T00:56:21.883Z,97967.34
2023-01-13T00:58:52.407Z,97950.22
2023-01-13T01:01:22.383Z,97948.66
2023-01-13T01:03:50.506Z,97941.59
2023-01-13T01:06:20.191Z,97935.38
2023-01-13T01:08:46.975Z,97936.53
2023-01-13T01:11:19.959Z,97936.88
2023-01-13T01:16:27.164Z,97940.31
2023-01-13T01:18:54.831Z,97954.00
2023-01-13T01:21:23.641Z,97938.03
2023-01-13T01:23:50.594Z,97943.63
2023-01-13T01:26:21.079Z,97945.94
2023-01-13T01:28:48.620Z,97942.47
2023-01-13T01:31:21.351Z,97945.59
2023-01-13T01:33:49.166Z,97951.84
2023-01-13T01:36:18.400Z,97953.81
2023-01-13T01:38:45.873Z,97941.78
2023-01-13T01:41:16.436Z,97941.78
2023-01-13T01:43:59.650Z,97936.31
2023-01-13T01:46:33.883Z,97944.91
2023-01-13T01:49:18.380Z,97944.53
2023-01-13T01:52:00.280Z,97937.19
2023-01-13T01:54:51.585Z,97937.19
2023-01-13T01:57:32.814Z,97930.53
2023-01-13T02:00:01.575Z,97921.53
2023-01-13T02:02:29.697Z,97927.38
2023-01-13T02:04:57.231Z,97934.78
2023-01-13T02:07:30.054Z,97928.97
2023-01-13T02:10:00.075Z,97930.94
2023-01-13T02:12:32.317Z,97931.72
2023-01-13T02:15:14.439Z,97925.44
2023-01-13T02:18:18.509Z,97923.88
2023-01-13T02:20:57.218Z,97927.03
2023-01-13T02:24:01.322Z,97925.84
2023-01-13T02:26:46.533Z,97919.97
2023-01-13T02:30:06.556Z,97920.78
2023-01-13T02:32:45.563Z,97912.97
2023-01-13T02:35:20.019Z,97905.19
2023-01-13T02:37:47.350Z,97907.91
2023-01-13T02:40:14.071Z,97902.03
2023-01-13T02:43:08.213Z,97900.53
2023-01-13T02:45:49.788Z,97893.09
2023-01-13T02:48:19.107Z,97889.22
2023-01-13T02:50:53.911Z,97889.59
2023-01-13T02:53:30.994Z,97884.50
2023-01-13T02:55:59.130Z,97887.63
2023-01-13T02:58:29.853Z,97889.56
2023-01-13T03:00:56.700Z,97886.50
2023-01-13T03:03:23.781Z,97892.69
2023-01-13T03:05:56.121Z,97880.97
2023-01-13T03:08:55.052Z,97882.16
2023-01-13T03:11:22.323Z,97880.22
2023-01-13T03:13:56.587Z,97879.44
2023-01-13T03:17:10.757Z,97880.63
2023-01-13T03:20:05.248Z,97881.75
2023-01-13T03:22:37.285Z,97881.38
2023-01-13T03:25:15.789Z,97880.22
2023-01-13T03:27:49.701Z,97881.75
2023-01-13T03:30:23.351Z,97883.34
2023-01-13T03:32:54.152Z,97865.38
2023-01-13T03:35:28.921Z,97872.78
2023-01-13T03:38:19.561Z,97864.56
2023-01-13T03:40:53.347Z,97850.53
2023-01-13T03:43:45.871Z,97864.59
2023-01-13T03:46:26.824Z,97857.16
2023-01-13T03:51:40.622Z,97848.22
2023-01-13T03:54:11.816Z,97840.38
2023-01-13T03:57:04.741Z,97850.53
2023-01-13T03:59:36.941Z,97849.34
2023-01-13T04:02:10.858Z,97843.47
2023-01-13T04:04:45.920Z,97832.50
2023-01-13T04:07:24.872Z,97836.09
2023-01-13T04:09:55.700Z,97835.66
2023-01-13T04:12:49.274Z,97825.94
2023-01-13T04:15:17.464Z,97841.88
2023-01-13T04:17:44.295Z,97823.94
2023-01-13T04:20:11.295Z,97823.94
2023-01-13T04:22:37.940Z,97816.03
2023-01-13T04:25:05.249Z,97818.81
2023-01-13T04:27:31.923Z,97831.72
2023-01-13T04:29:58.500Z,97831.63
2023-01-13T04:37:29.168Z,97834.78
2023-01-13T04:39:55.772Z,97835.66
2023-01-13T04:42:22.318Z,97832.94
2023-01-13T04:44:48.840Z,97827.09
2023-01-13T04:47:15.443Z,97827.84
2023-01-13T04:49:42.018Z,97816.56
2023-01-13T04:52:08.924Z,97820.56
2023-01-13T04:54:35.488Z,97809.97
2023-01-13T04:57:02.151Z,97802.94
2023-01-13T04:59:28.763Z,97813.50
2023-01-13T05:04:33.729Z,97803.38
2023-01-13T05:07:00.399Z,97797.91
2023-01-13T05:09:27.012Z,97796.78
2023-01-13T05:12:12.055Z,97804.59
2023-01-13T05:14:57.162Z,97801.03
2023-01-13T05:17:25.400Z,97811.56
2023-01-13T05:19:52.175Z,97810.44
2023-01-13T05:22:37.792Z,97808.47
2023-01-13T05:25:22.880Z,97822.13
2023-01-13T05:27:50.277Z,97805.34
2023-01-13T05:30:17.803Z,97806.50
2023-01-13T05:32:44.410Z,97816.66
2023-01-13T05:35:11.151Z,97810.78
2023-01-13T05:37:37.922Z,97805.38
2023-01-13T05:40:23.893Z,97809.25
2023-01-13T05:43:24.701Z,97813.13
2023-01-13T05:45:59.658Z,97811.22
2023-01-13T05:48:33.816Z,97803.06
2023-01-13T05:51:02.405Z,97803.44
2023-01-13T05:53:29.598Z,97797.97
2023-01-13T05:55:56.378Z,97801.47
2023-01-13T05:58:26.127Z,97792.50
2023-01-13T06:00:53.761Z,97800.69
2023-01-13T06:03:20.644Z,97800.69
2023-01-13T06:05:48.291Z,97795.59
2023-01-13T06:08:15.086Z,97798.31
2023-01-13T06:10:41.685Z,97807.63
2023-01-13T06:13:08.383Z,97807.28
2023-01-13T06:15:35.014Z,97815.81
2023-01-13T06:18:05.552Z,97816.66
2023-01-13T06:20:32.744Z,97817.78
2023-01-13T06:23:00.510Z,97818.59
2023-01-13T06:25:39.996Z,97819.75
2023-01-13T06:28:06.816Z,97816.25
2023-01-13T06:30:40.044Z,97814.34
2023-01-13T06:33:13.280Z,97813.19
2023-01-13T06:35:42.048Z,97810.84
2023-01-13T06:38:13.445Z,97809.25
2023-01-13T06:40:42.679Z,97812.38
2023-01-13T06:45:52.508Z,97796.78
2023-01-13T06:48:22.584Z,97801.53
2023-01-13T06:50:49.278Z,97794.88
2023-01-13T06:53:16.523Z,97797.56
2023-01-13T06:55:43.187Z,97796.00
2023-01-13T06:58:09.755Z,97799.09
2023-01-13T07:00:37.360Z,97795.22
2023-01-13T07:03:21.934Z,97798.31
2023-01-13T07:05:53.376Z,97799.09
2023-01-13T07:08:20.091Z,97801.06
2023-01-13T07:10:46.714Z,97792.88
2023-01-13T07:16:05.961Z,97794.41
2023-01-13T07:18:34.494Z,97792.44
2023-01-13T07:21:09.351Z,97801.47
2023-01-13T07:23:39.932Z,97799.16
2023-01-13T07:26:17.057Z,97802.66
2023-01-13T07:28:43.672Z,97795.59
2023-01-13T07:31:16.446Z,97786.63
2023-01-13T07:33:43.142Z,97792.50
2023-01-13T07:36:11.197Z,97801.91
2023-01-13T07:38:40.005Z,97810.06
2023-01-13T07:43:57.175Z,97812.03
2023-01-13T07:46:23.979Z,97810.09
2023-01-13T07:48:50.544Z,97810.50
2023-01-13T07:51:17.386Z,97817.91
2023-01-13T07:53:44.030Z,97809.31
2023-01-13T07:56:11.076Z,97812.47
2023-01-13T07:58:38.353Z,97811.69
2023-01-13T08:01:12.575Z,97800.00
2023-01-13T08:03:40.478Z,97809.38
2023-01-13T08:06:07.527Z,97816.38
2023-01-13T08:08:34.489Z,97820.66
2023-01-13T08:11:02.844Z,97816.78
2023-01-13T08:13:29.458Z,97817.56
2023-01-13T08:16:05.003Z,97828.88
2023-01-13T08:18:32.687Z,97825.41
2023-01-13T08:21:03.529Z,97834.31
2023-01-13T08:26:03.259Z,97841.03
2023-01-13T08:28:30.654Z,97845.31
2023-01-13T08:31:01.611Z,97844.19
2023-01-13T08:33:29.048Z,97842.28
2023-01-13T08:35:56.445Z,97841.50
2023-01-13T08:43:27.358Z,97877.00
2023-01-13T08:45:59.539Z,97869.53
2023-01-13T08:48:27.830Z,97869.13
2023-01-13T08:51:02.363Z,97870.28
2023-01-13T08:53:29.001Z,97897.13
2023-01-13T08:55:55.887Z,97900.91
2023-01-13T08:58:22.621Z,97906.72
2023-01-13T09:00:49.290Z,97916.00
2023-01-13T09:03:15.878Z,97924.91
2023-01-13T09:05:42.444Z,97919.00
2023-01-13T09:08:09.046Z,97931.31
2023-01-13T09:10:35.920Z,97937.69
2023-01-13T09:15:56.498Z,97985.38
2023-01-13T09:18:23.438Z,97998.44
2023-01-13T09:20:50.070Z,97979.06
2023-01-13T09:25:49.232Z,97980.34
2023-01-13T09:28:15.913Z,97997.22
2023-01-13T09:30:42.475Z,97994.81
2023-01-13T09:33:27.937Z,98002.22
2023-01-13T09:35:59.218Z,97995.47
2023-01-13T09:38:29.049Z,97995.94
2023-01-13T09:40:55.978Z,97992.91
2023-01-13T09:43:47.492Z,97990.09
2023-01-13T09:46:47.450Z,97998.00
2023-01-13T09:49:22.369Z,98003.66
2023-01-13T09:55:06.144Z,97999.38
2023-01-13T09:57:36.913Z,97992.88
2023-01-13T10:00:20.035Z,97993.69
2023-01-13T10:03:16.893Z,97996.75
2023-01-13T10:06:09.948Z,97993.22
2023-01-13T10:08:47.229Z,97998.31
2023-01-13T10:11:36.474Z,98009.97
2023-01-13T10:14:10.808Z,98009.84
2023-01-13T10:16:42.306Z,98005.28
2023-01-13T10:19:37.884Z,97998.63
2023-01-13T10:22:32.626Z,98007.16
2023-01-13T10:30:42.701Z,98008.94
2023-01-13T10:33:13.801Z,98016.69
2023-01-13T10:35:59.294Z,98018.59
2023-01-13T10:38:25.952Z,98012.72
2023-01-13T10:40:57.160Z,98034.81
2023-01-13T10:43:25.364Z,98038.75
2023-01-13T10:46:18.236Z,98039.75
2023-01-13T10:48:52.463Z,98042.59
2023-01-13T10:51:42.452Z,98039.19
2023-01-13T10:54:11.802Z,98045.72
2023-01-13T10:56:40.028Z,98041.56
2023-01-13T10:59:13.408Z,98050.59
2023-01-13T11:02:01.215Z,98050.09
2023-01-13T11:04:36.661Z,98048.53
2023-01-13T11:07:06.782Z,98058.41
2023-01-13T11:09:33.794Z,98046.22
2023-01-13T11:12:00.597Z,98055.81
2023-01-13T11:14:42.842Z,98042.94
2023-01-13T11:17:12.445Z,98045.22
2023-01-13T11:19:43.890Z,98055.41
2023-01-13T11:22:32.246Z,98047.53
2023-01-13T11:25:04.286Z,98060.19
2023-01-13T11:27:44.882Z,98056.66
2023-01-13T11:30:23.169Z,98064.47
2023-01-13T11:33:04.811Z,98069.19
2023-01-13T11:35:36.014Z,98066.03
2023-01-13T11:38:33.859Z,98069.09
2023-01-13T11:41:12.948Z,98059.91
2023-01-13T11:43:43.867Z,98080.72
2023-01-13T11:46:11.182Z,98078.03
2023-01-13T11:48:42.399Z,98081.41
2023-01-13T11:51:14.875Z,98084.06
2023-01-13T11:57:17.383Z,98066.16
2023-01-13T12:00:27.183Z,98072.88
2023-01-13T12:03:12.199Z,98066.28
2023-01-13T12:08:42.795Z,98059.66
2023-01-13T12:11:22.944Z,98054.94
2023-01-13T12:14:20.161Z,98054.31
2023-01-13T12:16:49.746Z,98061.84
2023-01-13T12:19:25.283Z,98054.44
2023-01-13T12:22:12.149Z,98057.94
2023-01-13T12:24:51.497Z,98058.44
2023-01-13T12:27:48.037Z,98061.53
2023-01-13T12:30:37.238Z,98063.34
2023-01-13T12:33:29.501Z,98066.19
2023-01-13T12:36:20.419Z,98078.06
2023-01-13T12:38:56.827Z,98078.06
2023-01-13T12:41:37.332Z,98080.34
2023-01-13T12:46:58.975Z,98093.41
2023-01-13T12:49:31.641Z,98104.00
2023-01-13T12:51:58.199Z,98093.34
2023-01-13T12:54:30.825Z,98099.31
2023-01-13T12:56:58.368Z,98107.13
2023-01-13T12:59:24.888Z,98119.94
2023-01-13T13:02:10.258Z,98117.63
2023-01-13T13:04:45.076Z,98122.47
2023-01-13T13:07:32.040Z,98104.69
2023-01-13T13:10:03.140Z,98108.81
2023-01-13T13:12:51.022Z,98112.91
2023-01-13T13:15:31.881Z,98104.31
2023-01-13T13:18:01.445Z,98108.41
2023-01-13T13:20:54.187Z,98108.91
2023-01-13T13:23:53.050Z,98106.03
2023-01-13T13:26:20.442Z,98091.00
2023-01-13T13:29:08.814Z,98103.34
2023-01-13T13:32:07.310Z,98101.00
2023-01-13T13:34:42.619Z,98113.25
2023-01-13T13:37:12.108Z,98119.53
2023-01-13T13:40:11.837Z,98123.03
2023-01-13T13:43:03.087Z,98126.44
2023-01-13T13:45:48.729Z,98130.00
2023-01-13T13:48:30.825Z,98114.38
2023-01-13T13:53:40.582Z,98117.25
2023-01-13T13:56:17.897Z,98116.47
2023-01-13T13:58:47.411Z,98124.97
2023-01-13T14:01:25.264Z,98124.63
2023-01-13T14:04:17.474Z,98142.19
2023-01-13T14:06:55.337Z,98143.53
2023-01-13T14:09:23.957Z,98158.31
2023-01-13T14:12:06.782Z,98160.94
2023-01-13T14:14:33.345Z,98171.38
2023-01-13T14:19:36.017Z,98188.91
2023-01-13T14:22:04.774Z,98198.91
2023-01-13T14:24:32.335Z,98204.88
2023-01-13T14:27:10.752Z,98215.56
2023-01-13T14:29:37.738Z,98216.44
2023-01-13T14:32:06.986Z,98222.81
2023-01-13T14:34:34.581Z,98211.56
2023-01-13T14:37:03.146Z,98194.38
2023-01-13T14:39:41.304Z,98198.88
2023-01-13T14:44:47.429Z,98192.41
2023-01-13T14:47:27.757Z,98209.16
2023-01-13T14:50:02.347Z,98209.69
2023-01-13T14:52:31.708Z,98210.03
2023-01-13T14:54:58.349Z,98209.66
2023-01-13T14:57:33.834Z,98218.81
2023-01-13T15:03:01.633Z,98233.06
2023-01-13T15:05:34.445Z,98232.41
2023-01-13T15:08:18.786Z,98237.00
2023-01-13T15:10:51.369Z,98249.03
2023-01-13T15:13:45.438Z,98235.97
2023-01-13T15:16:25.172Z,98245.34
2023-01-13T15:18:52.751Z,98239.81
2023-01-13T15:21:19.687Z,98247.72
2023-01-13T15:23:47.466Z,98246.22
2023-01-13T15:26:23.837Z,98254.22
2023-01-13T15:28:51.870Z,98256.06
2023-01-13T15:31:19.218Z,98254.13
2023-01-13T15:33:45.906Z,98265.69
2023-01-13T15:36:33.216Z,98267.81
2023-01-13T15:39:01.566Z,98271.66
2023-01-13T15:41:47.095Z,98284.13
2023-01-13T15:44:34.604Z,98281.41
2023-01-13T15:47:04.088Z,98290.69
2023-01-13T15:49:37.924Z,98290.41
2023-01-13T15:52:14.068Z,98288.94
2023-01-13T15:54:40.757Z,98284.19
2023-01-13T15:57:19.344Z,98292.34
2023-01-13T15:59:45.920Z,98298.75
2023-01-13T16:02:16.490Z,98307.09
2023-01-13T16:04:43.053Z,98302.19
2023-01-13T16:07:18.455Z,98309.81
2023-01-13T16:09:45.740Z,98319.81
2023-01-13T16:12:13.604Z,98324.81
2023-01-13T16:14:40.689Z,98334.31
2023-01-13T16:17:16.286Z,98330.25
2023-01-13T16:19:43.637Z,98331.31
2023-01-13T16:22:13.590Z,98333.50
2023-01-13T16:24:41.257Z,98329.28
2023-01-13T16:27:22.036Z,98340.81
2023-01-13T16:29:49.822Z,98337.56
2023-01-13T16:34:50.675Z,98341.72
2023-01-13T16:37:24.055Z,98342.88
2023-01-13T16:39:51.479Z,98352.97
2023-01-13T16:42:18.363Z,98362.56
2023-01-13T16:44:46.687Z,98364.13
2023-01-13T16:47:15.920Z,98357.81
2023-01-13T16:49:43.185Z,98358.53
2023-01-13T16:52:10.011Z,98364.03
2023-01-13T16:54:36.978Z,98361.09
2023-01-13T16:57:03.776Z,98361.16
2023-01-13T16:59:30.454Z,98357.16
2023-01-13T17:01:57.261Z,98372.09
2023-01-13T17:04:23.987Z,98371.88
2023-01-13T17:06:57.293Z,98374.94
2023-01-13T17:09:26.967Z,98378.81
2023-01-13T17:11:54.042Z,98386.53
2023-01-13T17:14:23.429Z,98392.50
2023-01-13T17:16:52.239Z,98398.50
2023-01-13T17:21:58.279Z,98389.38
2023-01-13T17:24:26.022Z,98391.63
2023-01-13T17:26:52.810Z,98400.91
2023-01-13T17:29:22.368Z,98403.97
2023-01-13T17:31:52.100Z,98410.38
2023-01-13T17:34:19.768Z,98418.38
2023-01-13T17:36:46.406Z,98418.50
2023-01-13T17:39:24.552Z,98423.94
2023-01-13T17:41:52.745Z,98422.94
2023-01-13T17:44:20.929Z,98423.50
2023-01-13T17:46:47.681Z,98423.94
2023-01-13T17:49:16.434Z,98428.03
2023-01-13T17:54:15.708Z,98430.94
2023-01-13T17:56:42.598Z,98434.09
2023-01-13T17:59:11.469Z,98430.00
2023-01-13T18:04:19.527Z,98427.47
2023-01-13T18:06:46.840Z,98434.25
2023-01-13T18:09:13.936Z,98439.53
2023-01-13T18:11:41.216Z,98448.03
2023-01-13T18:14:09.611Z,98441.22
2023-01-13T18:16:36.299Z,98453.31
2023-01-13T18:19:22.084Z,98450.84
2023-01-13T18:22:07.727Z,98463.66
2023-01-13T18:24:52.663Z,98466.19
2023-01-13T18:27:26.356Z,98469.94
2023-01-13T18:32:32.825Z,98472.22
2023-01-13T18:35:06.728Z,98476.75
2023-01-13T18:37:38.900Z,98481.75
2023-01-13T18:40:06.831Z,98480.69
2023-01-13T18:42:51.960Z,98483.66
2023-01-13T18:45:29.846Z,98494.53
2023-01-13T18:47:59.634Z,98501.56
2023-01-13T18:50:26.552Z,98506.56
2023-01-13T18:52:53.320Z,98512.22
2023-01-13T18:55:20.358Z,98515.16
2023-01-13T18:57:47.246Z,98525.09
2023-01-13T19:00:17.957Z,98535.28
2023-01-13T19:05:18.540Z,98541.50
2023-01-13T19:07:50.960Z,98541.97
2023-01-13T19:10:18.095Z,98545.63
2023-01-13T19:12:44.746Z,98544.31
2023-01-13T19:15:11.653Z,98556.44
2023-01-13T19:17:38.226Z,98554.19
2023-01-13T19:20:07.506Z,98558.94
2023-01-13T19:22:35.381Z,98566.66
2023-01-13T19:25:05.979Z,98565.41
2023-01-13T19:27:32.875Z,98575.84
2023-01-13T19:30:01.894Z,98581.06
2023-01-13T19:32:30.958Z,98581.28
2023-01-13T19:34:59.778Z,98586.50
2023-01-13T19:37:31.568Z,98597.03
2023-01-13T19:39:59.238Z,98590.34
2023-01-13T19:42:44.913Z,98599.06
2023-01-13T19:45:27.768Z,98603.59
2023-01-13T19:47:55.580Z,98605.09
2023-01-13T19:50:22.421Z,98611.66
2023-01-13T19:52:49.058Z,98621.72
2023-01-13T19:55:15.621Z,98620.25
2023-01-13T19:57:43.679Z,98627.94
2023-01-13T20:00:11.245Z,98641.31
2023-01-13T20:02:38.835Z,98641.69
2023-01-13T20:05:07.996Z,98631.72
2023-01-13T20:07:35.444Z,98632.97
2023-01-13T20:10:02.588Z,98635.22
2023-01-13T20:12:29.917Z,98636.69
2023-01-13T20:14:57.118Z,98641.53
2023-01-13T20:17:25.629Z,98643.28
2023-01-13T20:19:52.904Z,98647.69
2023-01-13T20:22:19.592Z,98651.75
2023-01-13T20:24:46.179Z,98649.13
2023-01-13T20:27:12.824Z,98641.78
2023-01-13T20:29:39.806Z,98655.59
2023-01-13T20:32:06.609Z,98659.22
2023-01-13T20:34:33.433Z,98663.97
2023-01-13T20:37:00.490Z,98669.19
2023-01-13T20:39:27.459Z,98677.91
2023-01-13T20:42:13.084Z,98673.72
2023-01-13T20:44:39.811Z,98662.94
2023-01-13T20:47:07.333Z,98678.91
2023-01-13T20:49:36.218Z,98683.91
2023-01-13T20:52:09.288Z,98678.22
2023-01-13T20:54:39.937Z,98677.69
2023-01-13T20:57:09.914Z,98682.50
2023-01-13T20:59:38.027Z,98671.22
2023-01-13T21:02:13.012Z,98672.75
2023-01-13T21:04:40.175Z,98669.13
2023-01-13T21:07:07.106Z,98671.38
2023-01-13T21:09:34.633Z,98672.75
2023-01-13T21:15:10.363Z,98674.31
2023-01-13T21:17:55.472Z,98672.63
2023-01-13T21:20:22.068Z,98673.63
2023-01-13T21:22:49.182Z,98679.44
2023-01-13T21:25:16.744Z,98673.00
2023-01-13T21:27:46.095Z,98689.50
2023-01-13T21:30:15.629Z,98679.31
2023-01-13T21:32:43.708Z,98677.38
2023-01-13T21:35:10.887Z,98674.53
2023-01-13T21:37:38.239Z,98674.97
2023-01-13T21:40:07.399Z,98680.06
2023-01-13T21:42:52.370Z,98682.41
2023-01-13T21:45:37.873Z,98688.19
2023-01-13T21:48:05.030Z,98688.78
2023-01-13T21:50:32.014Z,98691.81
2023-01-13T21:52:58.998Z,98695.66
2023-01-13T21:55:29.727Z,98700.22
2023-01-13T21:58:07.082Z,98702.84
2023-01-13T22:00:34.325Z,98708.66
2023-01-13T22:03:03.331Z,98710.41
2023-01-13T22:05:30.083Z,98709.59
2023-01-13T22:07:56.713Z,98709.13
2023-01-13T22:10:25.873Z,98712.72
2023-01-13T22:12:54.125Z,98724.06
2023-01-13T22:15:22.174Z,98720.41
2023-01-13T22:17:53.601Z,98733.97
2023-01-13T22:20:21.792Z,98724.84
2023-01-13T22:22:49.456Z,98726.22
2023-01-13T22:25:17.178Z,98725.63
2023-01-13T22:27:50.231Z,98738.31
2023-01-13T22:30:21.922Z,98742.59
2023-01-13T22:32:48.820Z,98732.69
2023-01-13T22:35:16.247Z,98734.66
2023-01-13T22:37:43.148Z,98744.72
2023-01-13T22:40:12.068Z,98747.63
2023-01-13T22:42:40.084Z,98750.34
2023-01-13T22:45:13.989Z,98739.13
2023-01-13T22:47:41.223Z,98749.41
2023-01-13T22:50:09.242Z,98744.13
2023-01-13T22:52:36.257Z,98751.19
2023-01-13T22:55:02.929Z,98749.06
2023-01-13T22:57:47.350Z,98740.00
2023-01-13T23:00:15.261Z,98739.75
2023-01-13T23:02:42.081Z,98738.06
2023-01-13T23:07:46.443Z,98735.31
2023-01-13T23:12:44.345Z,98731.63
2023-01-13T23:15:11.541Z,98738.88
2023-01-13T23:17:38.119Z,98734.53
2023-01-13T23:20:05.051Z,98739.41
2023-01-13T23:22:31.785Z,98743.19
2023-01-13T23:24:58.380Z,98739.81
2023-01-13T23:27:24.928Z,98734.72
2023-01-13T23:29:51.511Z,98724.97
2023-01-13T23:32:18.085Z,98727.69
2023-01-13T23:34:44.650Z,98729.75
2023-01-13T23:37:11.226Z,98736.41
2023-01-13T23:39:37.802Z,98743.09
2023-01-13T23:42:04.405Z,98742.19
2023-01-13T23:44:30.984Z,98735.31
2023-01-13T23:46:57.546Z,98739.88
2023-01-13T23:49:24.312Z,98737.81
2023-01-13T23:51:51.734Z,98744.38
2023-01-13T23:54:19.050Z,98744.75
2023-01-13T23:59:16.899Z,98732.19
